createdAt,value
2018-04-16T00:00:17.606Z,21.45
2018-04-16T00:02:44.254Z,23.60
2018-04-16T00:05:10.927Z,22.92
2018-04-16T00:07:37.543Z,21.87
2018-04-16T00:10:04.157Z,22.02
2018-04-16T00:12:30.828Z,22.52
2018-04-16T00:14:57.454Z,21.25
2018-04-16T00:17:24.090Z,21.80
2018-04-16T00:19:50.740Z,20.80
2018-04-16T00:22:17.369Z,21.95
2018-04-16T00:24:44.051Z,24.60
2018-04-16T00:27:10.695Z,21.37
2018-04-16T00:29:37.328Z,25.65
2018-04-16T00:32:09.709Z,22.58
2018-04-16T00:34:41.999Z,23.08
2018-04-16T00:37:14.312Z,21.15
2018-04-16T00:39:46.817Z,20.80
2018-04-16T00:42:19.271Z,22.13
2018-04-16T00:44:51.754Z,22.35
2018-04-16T00:47:33.357Z,21.12
2018-04-16T00:50:05.697Z,21.25
2018-04-16T00:52:37.889Z,21.42
2018-04-16T00:55:20.195Z,22.92
2018-04-16T00:57:52.469Z,21.67
2018-04-16T01:00:24.767Z,21.62
2018-04-16T01:02:57.114Z,20.75
2018-04-16T01:05:29.512Z,22.25
2018-04-16T01:08:01.843Z,21.85
2018-04-16T01:10:34.097Z,20.85
2018-04-16T01:13:06.502Z,22.45
2018-04-16T01:15:38.835Z,23.70
2018-04-16T01:18:11.287Z,22.58
2018-04-16T01:20:43.566Z,21.90
2018-04-16T01:23:16.066Z,21.35
2018-04-16T01:25:48.435Z,21.90
2018-04-16T01:28:21.084Z,22.83
2018-04-16T01:30:53.539Z,22.23
2018-04-16T01:33:25.985Z,20.60
2018-04-16T01:35:58.432Z,21.30
2018-04-16T01:38:42.864Z,19.30
2018-04-16T01:41:15.428Z,26.27
2018-04-16T01:43:47.921Z,22.10
2018-04-16T01:46:20.275Z,20.10
2018-04-16T01:48:52.647Z,20.73
2018-04-16T01:51:24.965Z,20.48
2018-04-16T01:53:57.391Z,21.77
2018-04-16T01:56:29.804Z,20.00
2018-04-16T01:59:02.220Z,20.45
2018-04-16T02:01:34.685Z,20.15
2018-04-16T02:04:07.057Z,22.48
2018-04-16T02:06:39.434Z,21.08
2018-04-16T02:09:11.718Z,20.08
2018-04-16T02:11:44.026Z,21.83
2018-04-16T02:14:16.307Z,18.40
2018-04-16T02:16:48.496Z,19.90
2018-04-16T02:19:20.900Z,21.20
2018-04-16T02:21:53.217Z,20.80
2018-04-16T02:24:25.508Z,20.00
2018-04-16T02:27:07.045Z,19.52
2018-04-16T02:29:39.215Z,20.10
2018-04-16T02:32:11.554Z,22.20
2018-04-16T02:34:44.006Z,19.45
2018-04-16T02:37:16.493Z,21.87
2018-04-16T02:39:48.902Z,21.83
2018-04-16T02:42:21.322Z,19.40
2018-04-16T02:45:03.850Z,19.90
2018-04-16T02:47:36.120Z,21.65
2018-04-16T02:50:08.416Z,19.50
2018-04-16T02:52:40.803Z,20.83
2018-04-16T02:55:13.230Z,21.40
2018-04-16T02:57:45.491Z,19.58
2018-04-16T03:00:17.793Z,22.33
2018-04-16T03:02:49.966Z,21.40
2018-04-16T03:05:22.456Z,21.08
2018-04-16T03:07:54.754Z,19.42
2018-04-16T03:10:27.135Z,19.52
2018-04-16T03:12:59.540Z,20.50
2018-04-16T03:15:31.981Z,20.95
2018-04-16T03:18:04.288Z,20.37
2018-04-16T03:20:36.626Z,23.55
2018-04-16T03:23:08.973Z,20.42
2018-04-16T03:25:41.356Z,20.90
2018-04-16T03:28:13.778Z,21.20
2018-04-16T03:30:46.078Z,22.52
2018-04-16T03:33:18.396Z,22.58
2018-04-16T03:35:50.839Z,20.58
2018-04-16T03:38:23.247Z,20.23
2018-04-16T03:40:55.677Z,20.98
2018-04-16T03:43:28.129Z,20.17
2018-04-16T03:46:00.540Z,19.67
2018-04-16T03:48:33.001Z,20.37
2018-04-16T03:51:05.403Z,21.08
2018-04-16T03:53:37.807Z,21.77
2018-04-16T03:56:04.433Z,19.52
2018-04-16T03:58:31.069Z,21.83
2018-04-16T04:00:57.721Z,21.85
2018-04-16T04:03:24.349Z,22.27
2018-04-16T04:05:51.001Z,23.60
2018-04-16T04:08:17.650Z,22.58
2018-04-16T04:10:44.325Z,20.70
2018-04-16T04:13:10.938Z,21.55
2018-04-16T04:15:37.567Z,21.98
2018-04-16T04:18:04.181Z,21.87
2018-04-16T04:20:30.819Z,20.83
2018-04-16T04:23:16.060Z,22.50
2018-04-16T04:25:48.518Z,20.50
2018-04-16T04:28:21.023Z,23.23
2018-04-16T04:30:47.635Z,22.10
2018-04-16T04:33:14.293Z,21.10
2018-04-16T04:35:40.907Z,20.30
2018-04-16T04:38:07.532Z,22.37
2018-04-16T04:40:34.169Z,21.33
2018-04-16T04:43:00.804Z,21.42
2018-04-16T04:45:27.476Z,19.90
2018-04-16T04:47:54.116Z,21.05
2018-04-16T04:50:20.755Z,22.23
2018-04-16T04:52:47.374Z,22.23
2018-04-16T04:55:14.027Z,22.48
2018-04-16T04:57:40.657Z,21.65
2018-04-16T05:00:07.307Z,21.50
2018-04-16T05:02:33.929Z,21.62
2018-04-16T05:05:00.538Z,21.80
2018-04-16T05:07:27.181Z,23.45
2018-04-16T05:09:53.819Z,20.95
2018-04-16T05:12:20.475Z,23.75
2018-04-16T05:14:47.101Z,23.17
2018-04-16T05:17:13.754Z,23.85
2018-04-16T05:19:40.402Z,23.70
2018-04-16T05:22:07.042Z,21.40
2018-04-16T05:24:33.682Z,23.30
2018-04-16T05:27:00.332Z,21.02
2018-04-16T05:29:26.972Z,22.83
2018-04-16T05:31:53.615Z,23.85
2018-04-16T05:34:20.241Z,21.70
2018-04-16T05:36:46.866Z,23.17
2018-04-16T05:39:13.500Z,23.38
2018-04-16T05:41:40.118Z,22.73
2018-04-16T05:44:06.743Z,19.60
2018-04-16T05:46:33.393Z,21.42
2018-04-16T05:49:00.128Z,23.15
2018-04-16T05:51:26.791Z,20.70
2018-04-16T05:53:53.544Z,20.52
2018-04-16T05:56:20.331Z,20.35
2018-04-16T05:58:47.339Z,20.02
2018-04-16T06:01:14.148Z,20.20
2018-04-16T06:03:40.872Z,23.35
2018-04-16T06:06:07.611Z,20.85
2018-04-16T06:08:34.359Z,23.65
2018-04-16T06:11:01.095Z,20.40
2018-04-16T06:13:27.824Z,20.33
2018-04-16T06:15:54.582Z,24.63
2018-04-16T06:18:21.291Z,22.20
2018-04-16T06:20:48.114Z,20.67
2018-04-16T06:23:14.945Z,22.20
2018-04-16T06:25:41.735Z,24.05
2018-04-16T06:28:08.436Z,20.88
2018-04-16T06:30:35.244Z,24.87
2018-04-16T06:33:02.000Z,21.45
2018-04-16T06:35:28.763Z,21.75
2018-04-16T06:37:55.652Z,22.95
2018-04-16T06:40:22.456Z,21.42
2018-04-16T06:42:49.147Z,22.40
2018-04-16T06:45:15.967Z,23.40
2018-04-16T06:47:42.682Z,21.37
2018-04-16T06:50:09.433Z,1999.90
2018-04-16T06:52:36.222Z,20.03
2018-04-16T06:55:03.005Z,18.97
2018-04-16T06:57:29.727Z,1999.90
2018-04-16T06:59:56.510Z,1999.90
2018-04-16T07:02:23.322Z,1999.90
2018-04-16T07:04:50.165Z,1999.90
2018-04-16T07:07:16.968Z,1999.90
2018-04-16T07:09:43.832Z,1999.90
2018-04-16T07:12:10.595Z,21.53
2018-04-16T07:14:37.375Z,23.80
2018-04-16T07:17:04.041Z,24.10
2018-04-16T07:19:30.761Z,25.30
2018-04-16T07:21:57.830Z,24.40
2018-04-16T07:24:24.577Z,23.10
2018-04-16T07:26:51.388Z,23.80
2018-04-16T07:29:18.188Z,24.20
2018-04-16T07:31:44.865Z,25.80
2018-04-16T07:34:11.590Z,25.60
2018-04-16T07:36:38.674Z,24.63
2018-04-16T07:39:06.272Z,26.90
2018-04-16T07:41:33.124Z,29.90
2018-04-16T07:43:59.845Z,27.93
2018-04-16T07:46:26.520Z,28.10
2018-04-16T07:48:53.326Z,29.17
2018-04-16T07:51:20.195Z,28.77
2018-04-16T07:53:47.218Z,28.73
2018-04-16T07:56:14.133Z,30.00
2018-04-16T07:58:40.889Z,29.40
2018-04-16T08:01:07.677Z,29.50
2018-04-16T08:03:34.441Z,26.00
2018-04-16T08:06:01.268Z,26.77
2018-04-16T08:08:28.002Z,25.93
2018-04-16T08:10:54.941Z,25.37
2018-04-16T08:13:21.689Z,25.50
2018-04-16T08:15:48.377Z,26.40
2018-04-16T08:18:15.238Z,26.83
2018-04-16T08:20:41.974Z,25.90
2018-04-16T08:23:08.733Z,26.20
2018-04-16T08:25:35.442Z,29.80
2018-04-16T08:28:02.220Z,26.50
2018-04-16T08:30:29.037Z,25.90
2018-04-16T08:32:55.862Z,27.03
2018-04-16T08:35:22.619Z,25.60
2018-04-16T08:37:49.387Z,26.13
2018-04-16T08:40:17.054Z,24.50
2018-04-16T08:42:43.783Z,23.90
2018-04-16T08:45:10.508Z,26.30
2018-04-16T08:47:37.341Z,25.20
2018-04-16T08:50:04.034Z,24.13
2018-04-16T08:52:30.767Z,24.23
2018-04-16T08:54:57.470Z,21.97
2018-04-16T08:57:24.438Z,24.20
2018-04-16T08:59:51.300Z,23.33
2018-04-16T09:02:18.180Z,22.93
2018-04-16T09:04:44.838Z,22.60
2018-04-16T09:07:11.455Z,25.40
2018-04-16T09:09:38.134Z,24.40
2018-04-16T09:12:04.746Z,26.40
2018-04-16T09:14:31.409Z,25.37
2018-04-16T09:16:58.041Z,25.07
2018-04-16T09:19:24.700Z,24.43
2018-04-16T09:21:51.322Z,24.50
2018-04-16T09:24:18.493Z,22.50
2018-04-16T09:26:45.114Z,24.90
2018-04-16T09:29:11.741Z,24.70
2018-04-16T09:31:38.382Z,23.37
2018-04-16T09:34:04.999Z,23.93
2018-04-16T09:36:32.335Z,28.07
2018-04-16T09:38:59.589Z,28.20
2018-04-16T09:41:26.219Z,25.40
2018-04-16T09:43:52.866Z,29.60
2018-04-16T09:46:19.522Z,31.07
2018-04-16T09:48:46.158Z,26.33
2018-04-16T09:51:12.798Z,29.13
2018-04-16T09:53:39.445Z,28.20
2018-04-16T09:56:06.087Z,31.73
2018-04-16T09:58:33.461Z,30.57
2018-04-16T10:01:00.141Z,29.30
2018-04-16T10:03:26.731Z,31.93
2018-04-16T10:05:53.374Z,29.63
2018-04-16T10:08:20.025Z,30.40
2018-04-16T10:10:46.638Z,33.30
2018-04-16T10:13:13.350Z,27.83
2018-04-16T10:15:40.019Z,28.83
2018-04-16T10:18:06.653Z,30.03
2018-04-16T10:20:33.282Z,30.17
2018-04-16T10:23:00.825Z,29.33
2018-04-16T10:25:27.450Z,30.63
2018-04-16T10:27:54.209Z,26.97
2018-04-16T10:30:20.829Z,26.50
2018-04-16T10:32:47.506Z,26.63
2018-04-16T10:35:14.142Z,29.47
2018-04-16T10:37:40.803Z,29.77
2018-04-16T10:40:07.434Z,25.93
2018-04-16T10:42:34.083Z,26.10
2018-04-16T10:45:00.717Z,28.50
2018-04-16T10:47:27.371Z,25.60
2018-04-16T10:49:54.675Z,25.37
2018-04-16T10:52:21.286Z,24.47
2018-04-16T10:54:48.009Z,25.00
2018-04-16T10:57:14.659Z,25.03
2018-04-16T10:59:41.953Z,25.90
2018-04-16T11:02:08.586Z,25.07
2018-04-16T11:04:35.222Z,23.53
2018-04-16T11:07:01.846Z,24.90
2018-04-16T11:09:28.495Z,23.67
2018-04-16T11:11:55.118Z,23.40
2018-04-16T11:14:21.772Z,21.80
2018-04-16T11:16:48.417Z,21.57
2018-04-16T11:19:15.065Z,22.63
2018-04-16T11:21:41.688Z,22.40
2018-04-16T11:24:08.304Z,23.70
2018-04-16T11:26:34.961Z,22.10
2018-04-16T11:29:01.621Z,22.93
2018-04-16T11:31:28.267Z,22.53
2018-04-16T11:33:54.941Z,22.47
2018-04-16T11:36:21.574Z,20.97
2018-04-16T11:38:48.218Z,21.27
2018-04-16T11:41:14.840Z,21.17
2018-04-16T11:43:41.499Z,23.53
2018-04-16T11:46:08.132Z,20.33
2018-04-16T11:48:34.797Z,21.90
2018-04-16T11:51:02.015Z,20.73
2018-04-16T11:53:28.629Z,23.20
2018-04-16T11:55:55.250Z,22.07
2018-04-16T11:58:21.884Z,21.23
2018-04-16T12:00:48.557Z,23.63
2018-04-16T12:03:15.165Z,20.43
2018-04-16T12:05:41.831Z,21.97
2018-04-16T12:08:08.459Z,22.17
2018-04-16T12:10:35.066Z,20.97
2018-04-16T12:13:01.706Z,21.87
2018-04-16T12:15:28.320Z,20.17
2018-04-16T12:17:54.998Z,21.13
2018-04-16T12:20:21.626Z,20.80
2018-04-16T12:22:48.315Z,21.60
2018-04-16T12:25:14.986Z,21.00
2018-04-16T12:27:41.623Z,22.80
2018-04-16T12:30:08.254Z,21.13
2018-04-16T12:32:34.892Z,22.97
2018-04-16T12:35:01.546Z,22.93
2018-04-16T12:37:28.166Z,19.60
2018-04-16T12:39:54.783Z,21.70
2018-04-16T12:42:21.417Z,20.90
2018-04-16T12:44:48.030Z,21.50
2018-04-16T12:47:14.703Z,21.00
2018-04-16T12:49:41.342Z,20.20
2018-04-16T12:52:07.982Z,20.47
2018-04-16T12:54:34.611Z,22.90
2018-04-16T12:57:01.231Z,22.27
2018-04-16T12:59:27.853Z,21.27
2018-04-16T13:01:54.475Z,23.47
2018-04-16T13:04:21.155Z,24.13
2018-04-16T13:06:47.778Z,25.77
2018-04-16T13:09:14.443Z,22.03
2018-04-16T13:11:41.141Z,24.20
2018-04-16T13:14:07.758Z,25.70
2018-04-16T13:16:34.370Z,24.30
2018-04-16T13:19:01.031Z,22.27
2018-04-16T13:21:27.709Z,23.40
2018-04-16T13:23:54.302Z,22.03
2018-04-16T13:26:20.925Z,25.27
2018-04-16T13:28:47.574Z,26.10
2018-04-16T13:31:14.215Z,23.80
2018-04-16T13:33:40.866Z,22.77
2018-04-16T13:36:07.506Z,25.37
2018-04-16T13:38:34.140Z,24.10
2018-04-16T13:41:01.471Z,23.97
2018-04-16T13:43:28.149Z,23.80
2018-04-16T13:45:54.774Z,23.87
2018-04-16T13:48:21.432Z,23.40
2018-04-16T13:50:48.089Z,24.27
2018-04-16T13:53:14.714Z,22.77
2018-04-16T13:55:41.356Z,25.13
2018-04-16T13:58:07.997Z,27.70
2018-04-16T14:00:34.625Z,24.00
2018-04-16T14:03:01.239Z,25.23
2018-04-16T14:05:27.879Z,23.30
2018-04-16T14:07:54.497Z,21.90
2018-04-16T14:10:21.171Z,22.40
2018-04-16T14:12:47.807Z,23.50
2018-04-16T14:15:14.457Z,26.37
2018-04-16T14:17:41.135Z,24.03
2018-04-16T14:20:07.777Z,26.53
2018-04-16T14:22:34.432Z,27.40
2018-04-16T14:25:01.059Z,22.00
2018-04-16T14:27:27.707Z,23.13
2018-04-16T14:29:54.346Z,25.90
2018-04-16T14:32:21.681Z,21.90
2018-04-16T14:34:48.299Z,24.93
2018-04-16T14:37:14.951Z,24.33
2018-04-16T14:39:41.580Z,26.20
2018-04-16T14:42:08.220Z,27.13
2018-04-16T14:44:34.866Z,26.00
2018-04-16T14:47:01.519Z,24.83
2018-04-16T14:49:28.167Z,27.30
2018-04-16T14:51:54.806Z,28.43
2018-04-16T14:54:21.462Z,25.40
2018-04-16T14:56:48.134Z,25.77
2018-04-16T14:59:14.718Z,26.10
2018-04-16T15:01:41.345Z,25.30
2018-04-16T15:04:08.007Z,23.83
2018-04-16T15:06:34.623Z,24.20
2018-04-16T15:09:01.303Z,25.90
2018-04-16T15:11:27.923Z,26.97
2018-04-16T15:13:54.581Z,26.00
2018-04-16T15:16:21.271Z,23.00
2018-04-16T15:18:47.919Z,23.60
2018-04-16T15:21:14.555Z,26.60
2018-04-16T15:23:42.008Z,26.63
2018-04-16T15:26:08.659Z,27.27
2018-04-16T15:28:35.403Z,23.90
2018-04-16T15:31:02.039Z,24.27
2018-04-16T15:33:28.675Z,27.47
2018-04-16T15:35:55.426Z,26.70
2018-04-16T15:38:22.058Z,24.50
2018-04-16T15:40:48.712Z,24.17
2018-04-16T15:43:15.405Z,26.33
2018-04-16T15:45:42.055Z,26.43
2018-04-16T15:48:08.714Z,26.83
2018-04-16T15:50:35.337Z,26.60
2018-04-16T15:53:01.992Z,24.83
2018-04-16T15:55:28.611Z,24.80
2018-04-16T15:57:55.272Z,26.83
2018-04-16T16:00:21.972Z,24.97
2018-04-16T16:02:48.589Z,22.83
2018-04-16T16:05:15.351Z,24.60
2018-04-16T16:07:41.982Z,23.17
2018-04-16T16:10:08.646Z,25.58
2018-04-16T16:12:35.280Z,29.10
2018-04-16T16:15:01.972Z,24.45
2018-04-16T16:17:28.558Z,25.60
2018-04-16T16:19:55.217Z,23.33
2018-04-16T16:22:21.907Z,25.17
2018-04-16T16:24:48.525Z,23.40
2018-04-16T16:27:15.201Z,24.70
2018-04-16T16:29:41.830Z,23.50
2018-04-16T16:32:08.484Z,23.70
2018-04-16T16:34:35.114Z,23.38
2018-04-16T16:37:01.775Z,26.92
2018-04-16T16:39:28.393Z,23.67
2018-04-16T16:41:55.134Z,24.65
2018-04-16T16:44:21.712Z,22.60
2018-04-16T16:46:48.355Z,22.33
2018-04-16T16:49:15.010Z,23.08
2018-04-16T16:51:41.685Z,22.05
2018-04-16T16:54:08.348Z,24.10
2018-04-16T16:56:34.980Z,25.48
2018-04-16T16:59:01.952Z,23.95
2018-04-16T17:01:29.066Z,22.50
2018-04-16T17:03:56.062Z,26.45
2018-04-16T17:06:22.742Z,24.55
2018-04-16T17:08:50.560Z,23.35
2018-04-16T17:11:17.197Z,21.15
2018-04-16T17:13:44.011Z,21.70
2018-04-16T17:16:11.350Z,22.17
2018-04-16T17:18:38.029Z,23.60
2018-04-16T17:21:08.566Z,22.02
2018-04-16T17:23:35.388Z,26.70
2018-04-16T17:26:06.051Z,21.80
2018-04-16T17:28:34.961Z,20.27
2018-04-16T17:31:01.661Z,19.15
2018-04-16T17:33:29.170Z,22.25
2018-04-16T17:35:55.891Z,21.50
2018-04-16T17:38:22.637Z,20.90
2018-04-16T17:40:49.316Z,24.30
2018-04-16T17:43:16.006Z,24.83
2018-04-16T17:45:42.696Z,22.60
2018-04-16T17:48:09.390Z,24.83
2018-04-16T17:50:36.111Z,24.50
2018-04-16T17:53:02.775Z,24.98
2018-04-16T17:55:30.437Z,19.98
2018-04-16T17:57:57.107Z,19.35
2018-04-16T18:00:24.094Z,22.73
2018-04-16T18:02:50.914Z,20.95
2018-04-16T18:05:17.678Z,19.87
2018-04-16T18:07:44.423Z,21.45
2018-04-16T18:10:11.274Z,22.62
2018-04-16T18:12:38.294Z,19.65
2018-04-16T18:15:05.157Z,20.17
2018-04-16T18:17:31.962Z,19.87
2018-04-16T18:19:58.928Z,18.12
2018-04-16T18:22:25.814Z,18.02
2018-04-16T18:24:57.121Z,22.02
2018-04-16T18:27:24.467Z,20.25
2018-04-16T18:29:51.442Z,20.17
2018-04-16T18:32:18.478Z,23.48
2018-04-16T18:34:46.148Z,23.95
2018-04-16T18:37:13.316Z,21.30
2018-04-16T18:39:40.047Z,19.80
2018-04-16T18:42:06.799Z,21.08
2018-04-16T18:44:33.581Z,20.92
2018-04-16T18:47:01.957Z,18.45
2018-04-16T18:49:30.233Z,20.40
2018-04-16T18:51:57.016Z,21.17
2018-04-16T18:54:23.807Z,20.70
2018-04-16T18:56:50.626Z,19.25
2018-04-16T18:59:17.519Z,23.42
2018-04-16T19:01:44.342Z,21.70
2018-04-16T19:04:11.233Z,18.73
2018-04-16T19:06:38.230Z,19.75
2018-04-16T19:09:05.924Z,20.77
2018-04-16T19:11:33.014Z,22.37
2018-04-16T19:13:59.763Z,18.60
2018-04-16T19:16:27.449Z,21.42
2018-04-16T19:18:54.620Z,18.33
2018-04-16T19:21:27.108Z,18.83
2018-04-16T19:23:53.844Z,22.58
2018-04-16T19:26:20.637Z,20.60
2018-04-16T19:28:47.841Z,21.02
2018-04-16T19:31:15.313Z,17.70
2018-04-16T19:34:01.971Z,19.10
2018-04-16T19:36:28.799Z,20.23
2018-04-16T19:38:56.942Z,20.98
2018-04-16T19:41:24.944Z,19.15
2018-04-16T19:43:51.737Z,19.10
2018-04-16T19:46:18.648Z,19.48
2018-04-16T19:48:51.379Z,22.92
2018-04-16T19:51:18.368Z,19.80
2018-04-16T19:53:46.411Z,19.40
2018-04-16T19:56:19.014Z,20.62
2018-04-16T19:58:45.823Z,20.98
2018-04-16T20:01:12.700Z,22.25
2018-04-16T20:03:50.267Z,18.08
2018-04-16T20:06:18.084Z,19.65
2018-04-16T20:08:45.364Z,18.87
2018-04-16T20:11:12.216Z,19.15
2018-04-16T20:13:39.231Z,19.60
2018-04-16T20:16:05.998Z,21.80
2018-04-16T20:18:33.769Z,18.70
2018-04-16T20:21:01.037Z,18.20
2018-04-16T20:23:27.851Z,20.83
2018-04-16T20:25:55.651Z,18.95
2018-04-16T20:28:22.452Z,19.35
2018-04-16T20:30:51.193Z,20.60
2018-04-16T20:33:17.976Z,19.95
2018-04-16T20:35:44.798Z,19.25
2018-04-16T20:38:11.646Z,22.37
2018-04-16T20:40:38.414Z,21.52
2018-04-16T20:43:05.968Z,18.27
2018-04-16T20:45:34.937Z,18.08
2018-04-16T20:48:01.787Z,20.70
2018-04-16T20:50:29.386Z,17.70
2018-04-16T20:52:56.747Z,18.55
2018-04-16T20:55:24.777Z,19.23
2018-04-16T20:57:52.217Z,19.85
2018-04-16T21:00:19.856Z,18.70
2018-04-16T21:02:50.574Z,20.62
2018-04-16T21:05:17.843Z,21.17
2018-04-16T21:07:44.621Z,18.25
2018-04-16T21:10:13.304Z,17.20
2018-04-16T21:12:40.050Z,18.67
2018-04-16T21:15:06.857Z,19.08
2018-04-16T21:17:33.622Z,16.92
2018-04-16T21:20:00.420Z,21.45
2018-04-16T21:22:27.737Z,19.00
2018-04-16T21:24:54.884Z,18.48
2018-04-16T21:27:21.814Z,19.98
2018-04-16T21:29:48.667Z,19.75
2018-04-16T21:32:16.454Z,19.12
2018-04-16T21:34:44.092Z,21.75
2018-04-16T21:37:10.846Z,20.70
2018-04-16T21:39:37.536Z,18.92
2018-04-16T21:42:04.250Z,22.83
2018-04-16T21:44:31.414Z,19.92
2018-04-16T21:46:58.181Z,21.40
2018-04-16T21:49:24.924Z,19.20
2018-04-16T21:51:51.850Z,22.67
2018-04-16T21:54:18.646Z,18.70
2018-04-16T21:56:45.422Z,24.42
2018-04-16T21:59:12.182Z,20.85
2018-04-16T22:01:39.317Z,19.10
2018-04-16T22:04:06.204Z,22.20
2018-04-16T22:06:33.181Z,19.75
2018-04-16T22:09:00.979Z,23.25
2018-04-16T22:11:30.305Z,22.33
2018-04-16T22:13:57.113Z,19.83
2018-04-16T22:16:24.209Z,21.58
2018-04-16T22:18:50.987Z,21.25
2018-04-16T22:21:17.740Z,18.80
2018-04-16T22:23:44.502Z,19.67
2018-04-16T22:26:11.364Z,21.85
2018-04-16T22:28:38.408Z,21.33
2018-04-16T22:31:05.184Z,22.27
2018-04-16T22:33:32.043Z,25.12
2018-04-16T22:35:58.907Z,19.33
2018-04-16T22:38:25.686Z,27.10
2018-04-16T22:40:52.569Z,19.12
2018-04-16T22:43:19.369Z,20.85
2018-04-16T22:45:46.116Z,23.52
2018-04-16T22:48:12.844Z,20.33
2018-04-16T22:50:40.022Z,24.30
2018-04-16T22:53:07.061Z,20.90
2018-04-16T22:55:33.888Z,19.83
2018-04-16T22:58:00.800Z,19.70
2018-04-16T23:00:27.571Z,22.95
2018-04-16T23:02:54.260Z,25.10
2018-04-16T23:05:21.111Z,20.15
2018-04-16T23:07:47.813Z,24.65
2018-04-16T23:10:14.579Z,17.75
2018-04-16T23:12:41.414Z,23.02
2018-04-16T23:15:08.175Z,21.92
2018-04-16T23:17:34.896Z,19.62
2018-04-16T23:20:01.998Z,24.63
2018-04-16T23:22:28.993Z,21.85
2018-04-16T23:24:55.992Z,19.98
2018-04-16T23:27:22.738Z,19.20
2018-04-16T23:29:49.589Z,19.55
2018-04-16T23:32:16.357Z,20.30
2018-04-16T23:34:43.176Z,22.27
2018-04-16T23:37:11.441Z,20.50
2018-04-16T23:39:38.189Z,23.35
2018-04-16T23:42:05.404Z,20.73
2018-04-16T23:44:36.150Z,21.85
2018-04-16T23:47:03.434Z,22.45
2018-04-16T23:49:30.286Z,22.85
2018-04-16T23:51:57.003Z,23.75
2018-04-16T23:54:23.930Z,20.08
2018-04-16T23:56:51.253Z,18.90
2018-04-16T23:59:18.815Z,24.70
